createdAt,value
2022-11-28T00:01:36.932Z,101755.81
2022-11-28T00:04:06.160Z,101759.38
2022-11-28T00:06:36.785Z,101748.72
2022-11-28T00:09:03.958Z,101752.28
2022-11-28T00:11:30.565Z,101744.31
2022-11-28T00:13:57.140Z,101739.81
2022-11-28T00:16:24.662Z,101727.38
2022-11-28T00:18:53.725Z,101725.66
2022-11-28T00:21:23.021Z,101723.00
2022-11-28T00:23:50.697Z,101731.03
2022-11-28T00:26:21.029Z,101731.03
2022-11-28T00:28:47.953Z,101731.88
2022-11-28T00:31:15.637Z,101723.81
2022-11-28T00:33:42.581Z,101725.66
2022-11-28T00:36:09.963Z,101730.16
2022-11-28T00:38:38.047Z,101723.81
2022-11-28T00:41:06.758Z,101728.34
2022-11-28T00:43:34.259Z,101723.00
2022-11-28T00:46:01.204Z,101721.25
2022-11-28T00:48:28.235Z,101720.38
2022-11-28T00:50:56.176Z,101727.47
2022-11-28T00:53:22.857Z,101716.75
2022-11-28T00:55:50.835Z,101714.06
2022-11-28T00:58:17.414Z,101710.53
2022-11-28T01:00:44.070Z,101703.44
2022-11-28T01:03:10.704Z,101704.31
2022-11-28T01:05:41.041Z,101695.41
2022-11-28T01:08:07.763Z,101691.00
2022-11-28T01:10:34.401Z,101692.81
2022-11-28T01:13:02.350Z,101687.56
2022-11-28T01:15:29.010Z,101690.25
2022-11-28T01:17:55.623Z,101683.16
2022-11-28T01:20:22.289Z,101684.09
2022-11-28T01:22:48.909Z,101689.44
2022-11-28T01:25:15.758Z,101682.34
2022-11-28T01:27:42.409Z,101682.47
2022-11-28T01:30:10.814Z,101678.94
2022-11-28T01:32:37.497Z,101679.00
2022-11-28T01:35:04.806Z,101668.28
2022-11-28T01:37:31.642Z,101673.56
2022-11-28T01:39:58.449Z,101668.28
2022-11-28T01:42:25.022Z,101666.47
2022-11-28T01:45:15.826Z,101659.38
2022-11-28T01:47:43.660Z,101662.06
2022-11-28T01:50:12.784Z,101668.28
2022-11-28T01:52:43.336Z,101660.25
2022-11-28T01:55:12.655Z,101662.06
2022-11-28T01:57:39.625Z,101656.72
2022-11-28T02:00:08.974Z,101646.00
2022-11-28T02:02:39.329Z,101643.41
2022-11-28T02:05:06.823Z,101636.34
2022-11-28T02:07:34.437Z,101633.72
2022-11-28T02:10:03.361Z,101629.34
2022-11-28T02:12:45.648Z,101631.06
2022-11-28T02:15:22.954Z,101619.59
2022-11-28T02:18:06.807Z,101621.50
2022-11-28T02:21:02.762Z,101614.41
2022-11-28T02:23:51.922Z,101620.75
2022-11-28T02:26:48.480Z,101615.47
2022-11-28T02:29:37.439Z,101611.06
2022-11-28T02:32:17.275Z,101614.81
2022-11-28T02:34:54.509Z,101616.53
2022-11-28T02:37:29.052Z,101607.72
2022-11-28T02:40:07.301Z,101609.63
2022-11-28T02:42:43.129Z,101601.69
2022-11-28T02:45:15.037Z,101603.50
2022-11-28T02:47:48.646Z,101601.78
2022-11-28T02:50:22.364Z,101602.84
2022-11-28T02:52:51.974Z,101601.97
2022-11-28T02:55:19.352Z,101601.19
2022-11-28T02:57:48.808Z,101591.44
2022-11-28T03:00:27.726Z,101594.22
2022-11-28T03:03:12.665Z,101596.03
2022-11-28T03:05:46.122Z,101596.09
2022-11-28T03:08:30.365Z,101588.19
2022-11-28T03:11:06.193Z,101582.84
2022-11-28T03:13:41.133Z,101583.78
2022-11-28T03:16:17.679Z,101579.38
2022-11-28T03:18:55.465Z,101569.66
2022-11-28T03:21:30.540Z,101574.13
2022-11-28T03:24:01.310Z,101576.91
2022-11-28T03:26:38.664Z,101569.81
2022-11-28T03:29:13.518Z,101570.00
2022-11-28T03:31:45.859Z,101570.88
2022-11-28T03:34:19.813Z,101572.75
2022-11-28T03:36:51.857Z,101570.22
2022-11-28T03:39:23.343Z,101570.28
2022-11-28T03:41:54.106Z,101556.13
2022-11-28T03:44:26.744Z,101558.91
2022-11-28T03:46:57.705Z,101550.97
2022-11-28T03:49:30.277Z,101559.06
2022-11-28T03:52:01.467Z,101554.69
2022-11-28T03:54:34.283Z,101552.97
2022-11-28T03:57:07.843Z,101548.69
2022-11-28T03:59:36.918Z,101543.41
2022-11-28T04:02:11.213Z,101548.84
2022-11-28T04:04:48.449Z,101545.31
2022-11-28T04:07:24.967Z,101539.19
2022-11-28T04:10:00.021Z,101539.28
2022-11-28T04:12:37.565Z,101536.69
2022-11-28T04:15:09.129Z,101549.22
2022-11-28T04:17:39.790Z,101547.50
2022-11-28T04:20:12.191Z,101541.28
2022-11-28T04:22:44.564Z,101541.28
2022-11-28T04:25:13.897Z,101533.25
2022-11-28T04:27:46.681Z,101532.38
2022-11-28T04:30:14.328Z,101529.72
2022-11-28T04:32:46.697Z,101526.09
2022-11-28T04:35:18.757Z,101514.50
2022-11-28T04:37:48.342Z,101520.75
2022-11-28T04:40:17.821Z,101517.94
2022-11-28T04:42:52.844Z,101524.06
2022-11-28T04:45:26.534Z,101512.41
2022-11-28T04:47:53.070Z,101515.97
2022-11-28T04:50:23.472Z,101513.16
2022-11-28T04:52:54.781Z,101511.34
2022-11-28T04:55:31.241Z,101516.63
2022-11-28T04:58:06.076Z,101521.91
2022-11-28T05:00:34.379Z,101508.41
2022-11-28T05:03:01.426Z,101509.25
2022-11-28T05:05:29.492Z,101503.81
2022-11-28T05:07:57.636Z,101514.41
2022-11-28T05:10:24.250Z,101509.94
2022-11-28T05:12:50.882Z,101512.44
2022-11-28T05:15:17.601Z,101515.94
2022-11-28T05:17:44.420Z,101507.84
2022-11-28T05:20:11.636Z,101513.09
2022-11-28T05:22:39.674Z,101516.66
2022-11-28T05:25:07.051Z,101509.34
2022-11-28T05:27:33.646Z,101515.50
2022-11-28T05:30:00.272Z,101518.16
2022-11-28T05:32:29.313Z,101510.03
2022-11-28T05:34:55.939Z,101512.63
2022-11-28T05:37:22.610Z,101508.97
2022-11-28T05:39:50.607Z,101502.69
2022-11-28T05:42:17.554Z,101503.44
2022-11-28T05:44:44.119Z,101490.97
2022-11-28T05:47:10.757Z,101485.63
2022-11-28T05:49:37.657Z,101485.63
2022-11-28T05:52:04.292Z,101482.88
2022-11-28T05:54:30.839Z,101486.41
2022-11-28T05:56:58.999Z,101476.72
2022-11-28T05:59:25.657Z,101477.59
2022-11-28T06:01:52.257Z,101473.22
2022-11-28T06:04:18.982Z,101467.88
2022-11-28T06:06:45.621Z,101465.28
2022-11-28T06:09:12.197Z,101464.50
2022-11-28T06:11:38.804Z,101461.06
2022-11-28T06:14:06.773Z,101455.78
2022-11-28T06:16:33.431Z,101455.06
2022-11-28T06:19:01.563Z,101450.66
2022-11-28T06:21:29.809Z,101450.84
2022-11-28T06:23:57.227Z,101447.31
2022-11-28T06:26:25.194Z,101453.69
2022-11-28T06:28:52.028Z,101452.94
2022-11-28T06:31:22.056Z,101456.56
2022-11-28T06:33:48.931Z,101453.13
2022-11-28T06:36:19.364Z,101452.28
2022-11-28T06:38:46.512Z,101453.25
2022-11-28T06:41:16.208Z,101456.88
2022-11-28T06:43:43.152Z,101450.66
2022-11-28T06:46:15.996Z,101459.63
2022-11-28T06:48:44.622Z,101461.44
2022-11-28T06:51:11.988Z,101462.31
2022-11-28T06:53:39.383Z,101471.31
2022-11-28T06:56:07.767Z,101456.94
2022-11-28T06:58:35.328Z,101462.31
2022-11-28T07:01:10.575Z,101456.94
2022-11-28T07:03:37.752Z,101448.91
2022-11-28T07:06:07.258Z,101450.56
2022-11-28T07:08:34.409Z,101454.19
2022-11-28T07:11:08.263Z,101449.69
2022-11-28T07:13:35.092Z,101453.13
2022-11-28T07:16:01.653Z,101445.00
2022-11-28T07:18:28.417Z,101449.41
2022-11-28T07:20:54.986Z,101445.78
2022-11-28T07:23:22.959Z,101452.75
2022-11-28T07:25:49.621Z,101454.47
2022-11-28T07:28:18.503Z,101447.19
2022-11-28T07:30:48.616Z,101449.78
2022-11-28T07:33:15.186Z,101451.38
2022-11-28T07:35:41.864Z,101449.56
2022-11-28T07:38:08.542Z,101446.81
2022-11-28T07:40:36.522Z,101446.81
2022-11-28T07:43:03.147Z,101444.88
2022-11-28T07:45:47.329Z,101434.16
2022-11-28T07:48:16.266Z,101443.75
2022-11-28T07:50:42.899Z,101432.06
2022-11-28T07:53:09.461Z,101434.56
2022-11-28T07:55:37.466Z,101432.63
2022-11-28T07:58:04.493Z,101433.41
2022-11-28T08:00:32.116Z,101425.25
2022-11-28T08:02:58.712Z,101423.34
2022-11-28T08:05:25.457Z,101433.75
2022-11-28T08:07:52.230Z,101435.38
2022-11-28T08:10:19.178Z,101432.41
2022-11-28T08:12:47.216Z,101427.03
2022-11-28T08:15:13.946Z,101419.78
2022-11-28T08:17:40.811Z,101423.19
2022-11-28T08:20:08.707Z,101424.91
2022-11-28T08:22:35.462Z,101424.84
2022-11-28T08:25:02.254Z,101415.81
2022-11-28T08:27:28.900Z,101414.00
2022-11-28T08:29:56.971Z,101412.94
2022-11-28T08:32:23.617Z,101412.81
2022-11-28T08:34:50.366Z,101418.97
2022-11-28T08:37:17.004Z,101413.59
2022-11-28T08:39:43.914Z,101417.03
2022-11-28T08:42:10.886Z,101412.53
2022-11-28T08:44:37.515Z,101420.47
2022-11-28T08:47:05.853Z,101423.94
2022-11-28T08:49:32.541Z,101424.59
2022-11-28T08:51:59.197Z,101435.97
2022-11-28T08:54:26.075Z,101441.88
2022-11-28T08:56:52.702Z,101449.72
2022-11-28T08:59:19.543Z,101450.25
2022-11-28T09:01:46.299Z,101450.06
2022-11-28T09:04:14.418Z,101446.84
2022-11-28T09:06:41.210Z,101449.22
2022-11-28T09:09:07.938Z,101444.41
2022-11-28T09:11:34.531Z,101439.69
2022-11-28T09:14:01.280Z,101441.34
2022-11-28T09:16:28.034Z,101434.78
2022-11-28T09:18:54.754Z,101438.22
2022-11-28T09:21:22.970Z,101420.22
2022-11-28T09:23:49.650Z,101431.72
2022-11-28T09:26:18.568Z,101423.31
2022-11-28T09:28:45.665Z,101423.00
2022-11-28T09:31:13.242Z,101421.19
2022-11-28T09:33:40.673Z,101425.59
2022-11-28T09:36:09.674Z,101434.41
2022-11-28T09:38:37.939Z,101437.81
2022-11-28T09:41:34.289Z,101435.78
2022-11-28T09:44:08.237Z,101439.25
2022-11-28T09:46:37.279Z,101438.94
2022-11-28T09:49:17.883Z,101444.94
2022-11-28T09:51:51.423Z,101441.06
2022-11-28T09:54:23.076Z,101434.53
2022-11-28T09:56:50.513Z,101433.78
2022-11-28T09:59:23.261Z,101426.69
2022-11-28T10:01:59.492Z,101419.69
2022-11-28T10:04:37.214Z,101420.56
2022-11-28T10:07:10.921Z,101420.38
2022-11-28T10:09:48.996Z,101412.94
2022-11-28T10:12:31.997Z,101415.50
2022-11-28T10:15:13.264Z,101402.84
2022-11-28T10:17:49.554Z,101407.91
2022-11-28T10:20:20.896Z,101404.28
2022-11-28T10:22:51.956Z,101403.19
2022-11-28T10:25:24.675Z,101402.22
2022-11-28T10:27:51.443Z,101400.09
2022-11-28T10:30:23.924Z,101397.94
2022-11-28T10:33:00.512Z,101396.84
2022-11-28T10:35:35.821Z,101402.84
2022-11-28T10:38:02.791Z,101401.78
2022-11-28T10:40:42.733Z,101398.13
2022-11-28T10:43:19.330Z,101394.38
2022-11-28T10:45:52.527Z,101385.34
2022-11-28T10:48:39.447Z,101382.66
2022-11-28T10:51:21.302Z,101382.44
2022-11-28T10:53:57.184Z,101378.78
2022-11-28T10:56:35.697Z,101379.41
2022-11-28T10:59:08.655Z,101361.56
2022-11-28T11:01:39.650Z,101364.16
2022-11-28T11:04:16.940Z,101366.72
2022-11-28T11:07:06.890Z,101368.44
2022-11-28T11:09:30.679Z,101373.56
2022-11-28T11:11:59.418Z,101374.88
2022-11-28T11:14:34.154Z,101373.53
2022-11-28T11:17:00.879Z,101371.38
2022-11-28T11:19:33.322Z,101362.78
2022-11-28T11:22:06.152Z,101361.56
2022-11-28T11:24:33.060Z,101361.34
2022-11-28T11:27:07.002Z,101365.59
2022-11-28T11:29:35.398Z,101365.41
2022-11-28T11:32:03.778Z,101361.38
2022-11-28T11:34:36.561Z,101368.38
2022-11-28T11:37:30.124Z,101365.44
2022-11-28T11:39:56.931Z,101364.47
2022-11-28T11:42:26.711Z,101355.56
2022-11-28T11:44:54.092Z,101356.41
2022-11-28T11:47:40.646Z,101341.13
2022-11-28T11:50:16.795Z,101343.69
2022-11-28T11:52:43.668Z,101338.31
2022-11-28T11:55:15.356Z,101338.22
2022-11-28T11:57:48.212Z,101335.28
2022-11-28T12:00:17.966Z,101328.84
2022-11-28T12:02:46.869Z,101318.94
2022-11-28T12:05:16.420Z,101318.06
2022-11-28T12:07:56.584Z,101310.97
2022-11-28T12:10:26.311Z,101317.09
2022-11-28T12:12:54.583Z,101311.84
2022-11-28T12:15:28.253Z,101310.88
2022-11-28T12:18:06.545Z,101308.28
2022-11-28T12:20:41.873Z,101315.59
2022-11-28T12:23:24.975Z,101316.81
2022-11-28T12:25:56.248Z,101320.25
2022-11-28T12:28:36.462Z,101321.97
2022-11-28T12:31:10.945Z,101314.75
2022-11-28T12:33:50.925Z,101318.28
2022-11-28T12:36:26.023Z,101312.91
2022-11-28T12:39:00.369Z,101301.94
2022-11-28T12:41:59.712Z,101314.53
2022-11-28T12:44:35.875Z,101311.72
2022-11-28T12:47:15.459Z,101308.19
2022-11-28T12:49:50.450Z,101301.94
2022-11-28T12:52:25.682Z,101309.16
2022-11-28T12:55:06.960Z,101309.25
2022-11-28T12:57:39.915Z,101296.78
2022-11-28T13:00:15.204Z,101296.78
2022-11-28T13:02:55.005Z,101294.31
2022-11-28T13:05:37.712Z,101291.63
2022-11-28T13:08:23.722Z,101288.94
2022-11-28T13:10:55.649Z,101284.44
2022-11-28T13:13:26.737Z,101281.75
2022-11-28T13:16:07.426Z,101281.84
2022-11-28T13:18:40.538Z,101279.16
2022-11-28T13:21:23.374Z,101281.84
2022-11-28T13:23:56.142Z,101277.47
2022-11-28T13:26:38.405Z,101276.59
2022-11-28T13:29:14.120Z,101277.56
2022-11-28T13:31:49.152Z,101277.69
2022-11-28T13:34:18.150Z,101278.78
2022-11-28T13:39:41.955Z,101277.81
2022-11-28T13:42:58.932Z,101276.97
2022-11-28T13:45:25.137Z,101268.28
2022-11-28T13:47:58.482Z,101267.53
2022-11-28T13:50:38.303Z,101263.25
2022-11-28T13:53:23.891Z,101258.84
2022-11-28T13:55:52.422Z,101265.19
2022-11-28T13:58:23.618Z,101263.47
2022-11-28T14:01:05.422Z,101259.91
2022-11-28T14:03:36.646Z,101260.06
2022-11-28T14:06:07.062Z,101260.16
2022-11-28T14:08:37.142Z,101244.28
2022-11-28T14:11:57.491Z,101249.75
2022-11-28T14:14:43.205Z,101261.47
2022-11-28T14:17:25.236Z,101259.03
2022-11-28T14:20:03.278Z,101267.31
2022-11-28T14:22:43.063Z,101262.06
2022-11-28T14:25:16.714Z,101265.72
2022-11-28T14:27:49.729Z,101285.50
2022-11-28T14:30:26.100Z,101287.34
2022-11-28T14:32:57.355Z,101285.84
2022-11-28T14:36:04.535Z,101292.31
2022-11-28T14:38:42.921Z,101280.94
2022-11-28T14:41:10.881Z,101292.78
2022-11-28T14:43:39.206Z,101298.34
2022-11-28T14:46:24.960Z,101291.50
2022-11-28T14:49:24.959Z,101294.31
2022-11-28T14:55:14.973Z,101292.06
2022-11-28T14:57:55.203Z,101297.53
2022-11-28T15:00:24.624Z,101291.34
2022-11-28T15:03:07.518Z,101287.91
2022-11-28T15:05:39.941Z,101288.13
2022-11-28T15:08:36.820Z,101284.69
2022-11-28T15:11:20.797Z,101292.00
2022-11-28T15:14:01.989Z,101294.78
2022-11-28T15:16:30.704Z,101286.84
2022-11-28T15:19:03.891Z,101294.16
2022-11-28T15:21:30.677Z,101299.75
2022-11-28T15:23:58.757Z,101302.66
2022-11-28T15:26:29.080Z,101300.09
2022-11-28T15:29:08.737Z,101308.16
2022-11-28T15:31:35.574Z,101306.31
2022-11-28T15:34:02.458Z,101306.44
2022-11-28T15:36:30.409Z,101299.44
2022-11-28T15:38:58.438Z,101298.69
2022-11-28T15:41:27.217Z,101299.66
2022-11-28T15:43:54.978Z,101311.34
2022-11-28T15:46:29.675Z,101298.06
2022-11-28T15:48:56.262Z,101305.25
2022-11-28T15:51:28.102Z,101307.94
2022-11-28T15:53:55.186Z,101301.94
2022-11-28T15:56:23.386Z,101308.34
2022-11-28T15:58:50.214Z,101310.06
2022-11-28T16:01:19.015Z,101317.28
2022-11-28T16:03:52.253Z,101314.59
2022-11-28T16:06:20.453Z,101316.50
2022-11-28T16:08:52.356Z,101320.19
2022-11-28T16:11:21.845Z,101332.84
2022-11-28T16:13:51.602Z,101326.75
2022-11-28T16:16:21.112Z,101325.25
2022-11-28T16:18:55.678Z,101321.91
2022-11-28T16:21:24.923Z,101325.56
2022-11-28T16:23:51.922Z,101324.72
2022-11-28T16:26:24.512Z,101321.25
2022-11-28T16:29:00.040Z,101319.44
2022-11-28T16:31:28.081Z,101317.63
2022-11-28T16:33:55.272Z,101312.25
2022-11-28T16:36:24.747Z,101315.03
2022-11-28T16:38:54.046Z,101315.25
2022-11-28T16:41:23.216Z,101316.22
2022-11-28T16:43:53.888Z,101318.16
2022-11-28T16:46:23.608Z,101314.63
2022-11-28T16:48:55.643Z,101314.72
2022-11-28T16:51:36.586Z,101321.91
2022-11-28T16:54:31.502Z,101319.34
2022-11-28T16:57:08.866Z,101323.84
2022-11-28T16:59:35.755Z,101327.50
2022-11-28T17:02:04.123Z,101320.53
2022-11-28T17:04:31.280Z,101325.03
2022-11-28T17:06:59.778Z,101324.19
2022-11-28T17:09:26.480Z,101334.13
2022-11-28T17:11:58.303Z,101332.31
2022-11-28T17:14:24.955Z,101338.53
2022-11-28T17:16:51.625Z,101346.59
2022-11-28T17:19:19.622Z,101333.19
2022-11-28T17:21:49.581Z,101331.47
2022-11-28T17:24:17.890Z,101345.00
2022-11-28T17:26:44.787Z,101334.13
2022-11-28T17:29:13.264Z,101336.81
2022-11-28T17:31:40.039Z,101329.00
2022-11-28T17:34:09.670Z,101343.50
2022-11-28T17:36:37.765Z,101346.28
2022-11-28T17:39:05.461Z,101347.22
2022-11-28T17:41:32.102Z,101345.50
2022-11-28T17:43:58.783Z,101336.72
2022-11-28T17:46:25.608Z,101340.16
2022-11-28T17:48:52.167Z,101337.69
2022-11-28T17:51:18.739Z,101342.31
2022-11-28T17:53:46.678Z,101337.91
2022-11-28T17:56:13.668Z,101339.72
2022-11-28T17:58:40.625Z,101339.72
2022-11-28T18:01:09.752Z,101338.88
2022-11-28T18:03:36.982Z,101330.91
2022-11-28T18:06:03.649Z,101331.78
2022-11-28T18:08:30.254Z,101330.19
2022-11-28T18:11:05.855Z,101320.50
2022-11-28T18:13:32.783Z,101324.25
2022-11-28T18:15:59.553Z,101310.94
2022-11-28T18:18:26.314Z,101312.91
2022-11-28T18:20:52.930Z,101308.50
2022-11-28T18:23:19.594Z,101317.50
2022-11-28T18:25:46.458Z,101321.13
2022-11-28T18:28:18.793Z,101327.47
2022-11-28T18:30:47.138Z,101323.81
2022-11-28T18:33:15.521Z,101319.53
2022-11-28T18:35:42.710Z,101320.41
2022-11-28T18:38:09.447Z,101320.41
2022-11-28T18:40:36.754Z,101311.59
2022-11-28T18:43:03.874Z,101316.94
2022-11-28T18:45:32.780Z,101325.97
2022-11-28T18:48:00.518Z,101317.94
2022-11-28T18:50:27.490Z,101325.97
2022-11-28T18:52:54.149Z,101318.88
2022-11-28T18:55:20.728Z,101319.13
2022-11-28T18:57:47.327Z,101318.25
2022-11-28T19:00:15.135Z,101312.13
2022-11-28T19:02:43.903Z,101309.66
2022-11-28T19:05:10.496Z,101319.53
2022-11-28T19:07:37.089Z,101322.28
2022-11-28T19:10:04.149Z,101319.59
2022-11-28T19:12:30.720Z,101317.78
2022-11-28T19:15:02.068Z,101317.91
2022-11-28T19:17:29.519Z,101323.38
2022-11-28T19:19:57.515Z,101325.09
2022-11-28T19:22:24.110Z,101320.59
2022-11-28T19:24:50.637Z,101319.75
2022-11-28T19:27:17.255Z,101328.50
2022-11-28T19:29:44.350Z,101323.16
2022-11-28T19:32:11.258Z,101334.75
2022-11-28T19:34:37.905Z,101332.81
2022-11-28T19:37:05.869Z,101323.16
2022-11-28T19:39:32.473Z,101329.38
2022-11-28T19:41:59.081Z,101326.78
2022-11-28T19:44:25.798Z,101328.50
2022-11-28T19:46:52.404Z,101324.09
2022-11-28T19:49:21.337Z,101327.00
2022-11-28T19:51:48.809Z,101328.72
2022-11-28T19:54:17.433Z,101330.47
2022-11-28T19:56:44.054Z,101321.66
2022-11-28T19:59:10.769Z,101328.81
2022-11-28T20:01:38.478Z,101337.72
2022-11-28T20:04:05.308Z,101341.38
2022-11-28T20:06:32.606Z,101340.41
2022-11-28T20:09:02.226Z,101332.28
2022-11-28T20:11:32.298Z,101338.50
2022-11-28T20:14:01.492Z,101330.47
2022-11-28T20:16:29.351Z,101341.19
2022-11-28T20:18:56.141Z,101328.72
2022-11-28T20:21:22.798Z,101334.09
2022-11-28T20:23:51.633Z,101339.47
2022-11-28T20:26:20.374Z,101343.00
2022-11-28T20:28:48.881Z,101339.47
2022-11-28T20:31:21.280Z,101341.19
2022-11-28T20:33:48.737Z,101337.72
2022-11-28T20:36:17.160Z,101340.41
2022-11-28T20:38:43.887Z,101345.69
2022-11-28T20:41:12.278Z,101348.22
2022-11-28T20:43:39.794Z,101346.53
2022-11-28T20:46:10.828Z,101334.00
2022-11-28T20:48:38.413Z,101346.41
2022-11-28T20:51:07.734Z,101344.59
2022-11-28T20:53:34.297Z,101344.59
2022-11-28T20:56:01.931Z,101349.97
2022-11-28T20:58:28.841Z,101344.59
2022-11-28T21:00:56.022Z,101344.59
2022-11-28T21:03:24.934Z,101351.69
2022-11-28T21:05:55.234Z,101349.88
2022-11-28T21:08:24.514Z,101335.50
2022-11-28T21:10:51.147Z,101336.47
2022-11-28T21:13:17.753Z,101334.66
2022-11-28T21:15:45.456Z,101340.97
2022-11-28T21:18:12.542Z,101331.19
2022-11-28T21:20:42.157Z,101334.84
2022-11-28T21:23:09.928Z,101337.50
2022-11-28T21:25:37.421Z,101342.88
2022-11-28T21:28:04.593Z,101340.31
2022-11-28T21:30:31.602Z,101342.88
2022-11-28T21:32:58.271Z,101341.19
2022-11-28T21:35:24.974Z,101343.88
2022-11-28T21:37:52.948Z,101339.38
2022-11-28T21:40:19.628Z,101332.16
2022-11-28T21:42:46.199Z,101343.75
2022-11-28T21:45:12.759Z,101341.06
2022-11-28T21:47:39.316Z,101345.56
2022-11-28T21:50:07.057Z,101348.22
2022-11-28T21:52:33.651Z,101350.19
2022-11-28T21:55:01.571Z,101345.78
2022-11-28T21:57:28.146Z,101344.03
2022-11-28T21:59:54.781Z,101341.50
2022-11-28T22:02:24.963Z,101339.75
2022-11-28T22:04:54.355Z,101343.31
2022-11-28T22:07:21.092Z,101338.81
2022-11-28T22:09:47.913Z,101337.00
2022-11-28T22:12:15.883Z,101346.72
2022-11-28T22:14:42.490Z,101343.19
2022-11-28T22:17:09.153Z,101337.94
2022-11-28T22:19:35.720Z,101347.72
2022-11-28T22:22:02.289Z,101344.16
2022-11-28T22:24:28.966Z,101343.31
2022-11-28T22:26:55.548Z,101352.31
2022-11-28T22:29:23.715Z,101344.34
2022-11-28T22:31:50.315Z,101344.34
2022-11-28T22:34:16.970Z,101341.78
2022-11-28T22:36:43.575Z,101341.78
2022-11-28T22:39:10.680Z,101348.97
2022-11-28T22:41:37.309Z,101353.56
2022-11-28T22:44:04.159Z,101346.50
2022-11-28T22:46:32.542Z,101338.56
2022-11-28T22:48:59.959Z,101348.41
2022-11-28T22:51:27.668Z,101350.25
2022-11-28T22:53:55.154Z,101343.06
2022-11-28T22:56:22.059Z,101348.41
2022-11-28T22:58:48.990Z,101348.31
2022-11-28T23:01:17.490Z,101343.84
2022-11-28T23:03:46.553Z,101346.50
2022-11-28T23:06:14.967Z,101345.66
2022-11-28T23:08:41.933Z,101344.78
2022-11-28T23:11:10.602Z,101346.59
2022-11-28T23:13:38.376Z,101346.69
2022-11-28T23:16:10.041Z,101346.69
2022-11-28T23:18:36.615Z,101346.81
2022-11-28T23:21:04.570Z,101345.09
2022-11-28T23:23:31.479Z,101347.78
2022-11-28T23:26:04.943Z,101345.09
2022-11-28T23:28:32.011Z,101341.47
2022-11-28T23:31:04.984Z,101342.41
2022-11-28T23:33:31.894Z,101346.03
2022-11-28T23:35:58.495Z,101354.09
2022-11-28T23:38:26.522Z,101348.81
2022-11-28T23:40:56.459Z,101345.41
2022-11-28T23:43:23.289Z,101351.63
2022-11-28T23:45:49.945Z,101346.25
2022-11-28T23:48:16.599Z,101339.38
2022-11-28T23:50:43.232Z,101351.81
2022-11-28T23:53:09.877Z,101343.03
2022-11-28T23:55:37.952Z,101348.38
2022-11-28T23:58:04.719Z,101352.00
